Walcourt, Belgium
Current Conditions -  °F | °C
As of 10:55 AM on Sunday 25 Jan 2015 (Local Time) from EBFS Reporting Station
Haze Haze  
Wind Chill: 27°   Ceiling: 300
Heat Index: 34°   Visibility: 0.93mi
Dew Point: 34°   Wind: 8mph
Humidity: 100%   Direction: 260°W
Pressure: 30.45"   Gusts: NA
Location:  50.25°N, 4.44°E
Report Text: EBFS 250955Z 26007KT 1500 BR SCT002 BKN003 01/01 Q1031 AMB
Loading
Personal Weather Stations






























Interactive Weather Map New forecast layout! Learn more

10-Day Weather Forecast

Advertisements
Track Severe Weather on mobile